Time;durP1;ratioP1;P1;durP2;ratioP2;P2;SDS_P1;SDS_P2;PMS_P1;PMS_P2;Temp;Humidity;BMP_temperature;BMP_pressure;BME280_temperature;BME280_humidity;BME280_pressure;Samples;Min_cycle;Max_cycle;Signal;HPM_P1;HPM_P2
2022/03/11 00:01:45;;;;;;;18.08;10.55;;;-2.70;97.80;;;;;;5055157;28;20055;-80
2022/03/11 00:04:10;;;;;;;24.75;10.32;;;-2.80;97.80;;;;;;5053822;28;20052;-82
2022/03/11 00:06:36;;;;;;;24.58;10.82;;;-2.80;98.00;;;;;;5053708;28;20472;-81
2022/03/11 00:09:02;;;;;;;17.65;9.77;;;-2.90;98.00;;;;;;5053735;28;20025;-82
2022/03/11 00:11:28;;;;;;;18.02;10.63;;;-2.90;98.00;;;;;;5055118;28;20021;-82
2022/03/11 00:13:54;;;;;;;19.08;9.77;;;-2.90;98.00;;;;;;5053794;28;20078;-80
2022/03/11 00:16:20;;;;;;;17.75;9.68;;;-2.90;97.80;;;;;;5053656;28;20480;-80
2022/03/11 00:18:46;;;;;;;14.65;9.77;;;-2.90;97.90;;;;;;5053611;28;20384;-80
2022/03/11 00:21:12;;;;;;;17.85;9.45;;;-2.90;98.00;;;;;;5053340;28;20037;-81
2022/03/11 00:23:42;;;;;;;17.90;9.73;;;-3.00;98.10;;;;;;5053516;28;20025;-79
2022/03/11 00:26:09;;;;;;;17.85;9.73;;;-3.00;98.20;;;;;;5053675;28;20025;-82
2022/03/11 00:28:35;;;;;;;16.88;9.70;;;-3.10;98.40;;;;;;5053590;28;20021;-81
2022/03/11 00:31:02;;;;;;;20.73;11.70;;;-3.20;98.70;;;;;;5053519;28;20027;-80
2022/03/11 00:33:27;;;;;;;17.85;9.45;;;-3.20;98.90;;;;;;5053584;28;20491;-81
2022/03/11 00:35:53;;;;;;;15.07;8.65;;;-3.30;99.10;;;;;;5053538;28;20025;-80
2022/03/11 00:38:19;;;;;;;20.67;10.15;;;-3.30;99.40;;;;;;5053413;28;20523;-80
2022/03/11 00:40:45;;;;;;;20.30;9.68;;;-3.40;99.80;;;;;;5053407;28;20029;-83
2022/03/11 00:43:10;;;;;;;17.90;10.20;;;-3.40;99.90;;;;;;5053054;28;20369;-81
2022/03/11 00:45:36;;;;;;;17.23;9.40;;;-3.50;99.90;;;;;;5055180;28;20422;-81
2022/03/11 00:48:02;;;;;;;19.23;10.18;;;-3.50;99.90;;;;;;5057234;28;20029;-81
2022/03/11 00:50:27;;;;;;;18.38;9.27;;;-3.50;99.90;;;;;;5057020;28;20025;-82
2022/03/11 00:52:53;;;;;;;21.13;10.02;;;-3.60;99.90;;;;;;5057239;28;20029;-81
2022/03/11 00:55:19;;;;;;;20.42;10.65;;;-3.50;99.90;;;;;;5057143;28;20036;-81
2022/03/11 00:57:44;;;;;;;23.77;9.38;;;-3.60;99.90;;;;;;5056981;28;20013;-80
2022/03/11 01:00:10;;;;;;;17.92;9.55;;;-3.60;99.90;;;;;;5058070;28;20032;-82
2022/03/11 01:02:38;;;;;;;19.63;9.68;;;-3.60;99.90;;;;;;5057085;28;20039;-80
2022/03/11 01:05:05;;;;;;;15.82;9.10;;;-3.60;99.90;;;;;;5056870;28;20060;-84
2022/03/11 01:07:31;;;;;;;14.95;8.68;;;-3.60;99.90;;;;;;5056838;28;20029;-81
2022/03/11 01:09:56;;;;;;;16.30;9.10;;;-3.70;99.90;;;;;;5057042;28;20028;-83
2022/03/11 01:12:22;;;;;;;18.23;8.65;;;-3.70;99.90;;;;;;5056429;28;20032;-80
2022/03/11 01:14:48;;;;;;;14.80;8.32;;;-3.70;99.90;;;;;;5056632;28;20388;-81
2022/03/11 01:17:13;;;;;;;15.65;8.73;;;-3.70;99.90;;;;;;5056992;28;20353;-82
2022/03/11 01:19:40;;;;;;;17.33;8.63;;;-3.70;99.90;;;;;;5056897;28;20025;-81
2022/03/11 01:22:06;;;;;;;16.80;8.35;;;-3.80;99.90;;;;;;5057416;28;20369;-81
2022/03/11 01:24:32;;;;;;;18.20;8.23;;;-3.80;99.90;;;;;;5056660;28;20021;-83
2022/03/11 01:26:58;;;;;;;17.58;9.88;;;-3.80;99.90;;;;;;5056161;28;20437;-82
2022/03/11 01:29:24;;;;;;;16.88;8.73;;;-3.90;99.90;;;;;;5056668;28;20021;-80
2022/03/11 01:31:53;;;;;;;18.88;8.85;;;-3.80;99.90;;;;;;5056717;28;20472;-79
2022/03/11 01:34:20;;;;;;;20.30;9.85;;;-3.90;99.90;;;;;;5056595;28;20560;-82
2022/03/11 01:36:46;;;;;;;21.38;10.55;;;-3.90;99.90;;;;;;5056346;28;20361;-82
2022/03/11 01:39:11;;;;;;;20.23;10.23;;;-3.90;99.90;;;;;;5057238;28;20095;-80
2022/03/11 01:41:37;;;;;;;19.10;9.38;;;-3.90;99.90;;;;;;5056390;28;20033;-81
2022/03/11 01:44:06;;;;;;;18.42;8.73;;;-3.90;99.90;;;;;;5056337;28;20025;-80
2022/03/11 01:46:32;;;;;;;20.17;10.05;;;-3.90;99.90;;;;;;5056619;28;20021;-80
2022/03/11 01:48:58;;;;;;;15.98;8.63;;;-4.00;99.90;;;;;;5055581;28;20025;-81
2022/03/11 01:51:26;;;;;;;15.27;8.82;;;-4.00;99.90;;;;;;5056088;28;20086;-80
2022/03/11 01:53:53;;;;;;;12.23;7.47;;;-4.00;99.90;;;;;;5056345;28;20024;-81
2022/03/11 01:56:19;;;;;;;15.20;8.57;;;-4.10;99.90;;;;;;5055520;28;20121;-80
2022/03/11 01:58:49;;;;;;;19.50;8.93;;;-4.10;99.90;;;;;;5055625;28;20021;-81
2022/03/11 02:01:16;;;;;;;14.15;7.82;;;-4.10;99.90;;;;;;5056049;28;20823;-81
2022/03/11 02:03:41;;;;;;;15.68;8.10;;;-4.10;99.90;;;;;;5055959;28;20063;-80
2022/03/11 02:06:08;;;;;;;15.80;8.43;;;-4.20;99.90;;;;;;5055277;28;20029;-82
2022/03/11 02:08:35;;;;;;;15.10;7.75;;;-4.20;99.90;;;;;;5055271;28;20025;-82
2022/03/11 02:11:01;;;;;;;16.60;7.97;;;-4.20;99.90;;;;;;5055606;28;20060;-81
2022/03/11 02:13:27;;;;;;;16.98;8.68;;;-4.30;99.90;;;;;;5055930;28;20106;-81
2022/03/11 02:15:52;;;;;;;19.98;8.50;;;-4.30;99.90;;;;;;5056767;28;20077;-82
2022/03/11 02:18:19;;;;;;;18.98;8.95;;;-4.30;99.90;;;;;;5055525;28;20021;-81
2022/03/11 02:20:48;;;;;;;17.13;8.40;;;-4.30;99.90;;;;;;5055635;28;20127;-80
2022/03/11 02:23:15;;;;;;;17.42;8.02;;;-4.40;99.90;;;;;;5056707;28;20029;-82
2022/03/11 02:25:41;;;;;;;17.65;8.63;;;-4.40;99.90;;;;;;5055492;28;20013;-81
2022/03/11 02:28:07;;;;;;;14.00;8.02;;;-4.40;99.90;;;;;;5055557;28;20446;-81
2022/03/11 02:30:33;;;;;;;15.23;8.52;;;-4.40;99.90;;;;;;5055405;28;20021;-81
2022/03/11 02:32:58;;;;;;;13.18;7.75;;;-4.40;99.90;;;;;;5055584;28;20025;-81
2022/03/11 02:35:24;;;;;;;14.93;8.50;;;-4.40;99.90;;;;;;5055097;28;20551;-82
2022/03/11 02:37:49;;;;;;;14.10;6.97;;;-4.50;99.90;;;;;;5055192;28;20125;-81
2022/03/11 02:40:15;;;;;;;14.43;7.53;;;-4.50;99.90;;;;;;5055048;28;20029;-82
2022/03/11 02:42:41;;;;;;;17.70;8.15;;;-4.40;99.90;;;;;;5055289;28;20116;-80
2022/03/11 02:45:08;;;;;;;15.38;8.77;;;-4.50;99.90;;;;;;5055259;28;20472;-80
2022/03/11 02:47:33;;;;;;;14.75;7.32;;;-4.50;99.90;;;;;;5055324;28;20515;-81
2022/03/11 02:49:59;;;;;;;15.40;7.40;;;-4.40;99.90;;;;;;5055242;28;20024;-81
2022/03/11 02:52:29;;;;;;;14.65;7.50;;;-4.50;99.90;;;;;;5055160;28;20391;-81
2022/03/11 02:54:55;;;;;;;13.23;7.43;;;-4.50;99.90;;;;;;5055049;28;20029;-82
2022/03/11 02:57:21;;;;;;;11.15;6.85;;;-4.50;99.90;;;;;;5055286;28;20168;-82
2022/03/11 02:59:47;;;;;;;10.18;6.50;;;-4.40;99.50;;;;;;5056443;28;20107;-81
2022/03/11 03:02:13;;;;;;;12.20;6.72;;;-4.40;99.10;;;;;;5055043;28;20123;-83
2022/03/11 03:04:39;;;;;;;11.15;6.05;;;-4.30;98.60;;;;;;5055227;28;20075;-83
2022/03/11 03:07:05;;;;;;;10.45;5.85;;;-4.30;98.30;;;;;;5055392;28;20476;-81
2022/03/11 03:09:31;;;;;;;10.43;5.93;;;-4.30;97.80;;;;;;5056501;28;20017;-81
2022/03/11 03:11:56;;;;;;;12.00;6.15;;;-4.20;97.60;;;;;;5054996;28;20036;-80
2022/03/11 03:14:22;;;;;;;10.35;5.78;;;-4.20;97.70;;;;;;5054599;28;20075;-82
2022/03/11 03:16:47;;;;;;;11.32;6.00;;;-4.20;97.50;;;;;;5055314;28;20070;-82
2022/03/11 03:19:13;;;;;;;14.23;6.57;;;-4.20;97.30;;;;;;5056087;28;20024;-81
2022/03/11 03:21:39;;;;;;;11.77;5.82;;;-4.10;97.00;;;;;;5055115;28;20044;-81
2022/03/11 03:24:06;;;;;;;12.40;6.00;;;-4.10;96.90;;;;;;5054611;28;20025;-82
2022/03/11 03:26:32;;;;;;;13.30;6.22;;;-4.10;96.90;;;;;;5055186;28;20036;-81
2022/03/11 03:28:58;;;;;;;14.73;5.88;;;-4.10;96.90;;;;;;5055050;28;20375;-81
2022/03/11 03:31:24;;;;;;;9.82;5.25;;;-4.10;97.00;;;;;;5054739;28;20112;-83
2022/03/11 03:33:50;;;;;;;11.45;6.30;;;-4.10;96.60;;;;;;5055031;28;20017;-82
2022/03/11 03:36:15;;;;;;;9.13;5.30;;;-4.10;96.50;;;;;;5054352;28;20538;-82
2022/03/11 03:38:41;;;;;;;12.35;6.68;;;-4.10;96.50;;;;;;5054339;28;20045;-82
2022/03/11 03:41:08;;;;;;;11.98;6.32;;;-4.20;96.70;;;;;;5054655;28;20067;-81
2022/03/11 03:43:33;;;;;;;9.93;5.80;;;-4.30;96.80;;;;;;5054345;28;20052;-81
2022/03/11 03:45:59;;;;;;;7.95;5.47;;;-4.40;97.00;;;;;;5054480;28;20031;-80
2022/03/11 03:48:25;;;;;;;12.98;5.63;;;-4.40;97.00;;;;;;5054397;28;20119;-81
2022/03/11 03:50:50;;;;;;;8.35;5.07;;;-4.40;97.00;;;;;;5054943;28;20032;-82
2022/03/11 03:53:16;;;;;;;9.15;5.18;;;-4.40;97.00;;;;;;5054421;28;20491;-81
2022/03/11 03:55:42;;;;;;;8.82;4.60;;;-4.50;96.80;;;;;;5054142;28;20021;-79
2022/03/11 03:58:08;;;;;;;8.50;5.68;;;-4.50;96.80;;;;;;5054314;28;20029;-80
2022/03/11 04:00:34;;;;;;;8.18;4.68;;;-4.60;96.60;;;;;;5054206;28;20029;-83
2022/03/11 04:02:59;;;;;;;8.93;4.82;;;-4.60;96.80;;;;;;5054350;28;20047;-81
2022/03/11 04:05:25;;;;;;;9.15;4.10;;;-4.60;96.80;;;;;;5055476;28;20476;-79
2022/03/11 04:07:51;;;;;;;7.38;4.55;;;-4.60;96.60;;;;;;5054238;28;20032;-82
2022/03/11 04:10:18;;;;;;;8.70;4.18;;;-4.60;96.80;;;;;;5053851;28;20090;-81
2022/03/11 04:12:44;;;;;;;8.15;5.05;;;-4.80;97.00;;;;;;5053767;28;20055;-83
2022/03/11 04:15:10;;;;;;;8.93;5.28;;;-4.80;97.00;;;;;;5053969;28;20021;-82
2022/03/11 04:17:36;;;;;;;14.75;5.50;;;-4.80;96.80;;;;;;5054179;28;20025;-80
2022/03/11 04:20:02;;;;;;;8.43;4.97;;;-4.80;96.70;;;;;;5054630;28;20025;-82
2022/03/11 04:22:28;;;;;;;8.90;4.82;;;-4.70;96.80;;;;;;5057698;28;20029;-81
2022/03/11 04:24:53;;;;;;;10.13;4.80;;;-4.80;96.70;;;;;;5058177;28;20032;-82
2022/03/11 04:27:19;;;;;;;6.95;4.45;;;-4.80;96.80;;;;;;5057754;28;20084;-81
2022/03/11 04:29:45;;;;;;;11.82;5.95;;;-4.80;96.60;;;;;;5056937;28;20025;-81
2022/03/11 04:32:11;;;;;;;10.93;5.63;;;-4.80;96.60;;;;;;5056871;28;20013;-81
2022/03/11 04:34:37;;;;;;;12.02;5.45;;;-4.90;96.80;;;;;;5056562;28;20544;-81
2022/03/11 04:37:03;;;;;;;10.45;6.32;;;-4.80;96.80;;;;;;5056785;28;20063;-82
2022/03/11 04:39:29;;;;;;;16.05;6.47;;;-4.90;96.90;;;;;;5056539;28;20594;-81
2022/03/11 04:41:55;;;;;;;10.80;5.43;;;;;;;;;;5056411;28;20090;-83
2022/03/11 04:44:21;;;;;;;10.35;5.72;;;;;;;;;;5057720;28;20503;-81
2022/03/11 04:46:47;;;;;;;14.32;8.45;;;;;;;;;;5056714;28;20028;-82
2022/03/11 04:49:13;;;;;;;11.25;6.65;;;;;;;;;;5058039;28;20464;-81
2022/03/11 04:51:39;;;;;;;11.98;6.53;;;;;;;;;;5056549;28;20039;-80
2022/03/11 04:54:06;;;;;;;7.15;4.28;;;;;;;;;;5057775;28;20029;-81
2022/03/11 04:56:32;;;;;;;9.32;4.88;;;-4.90;99.90;;;;;;5056599;28;20092;-81
2022/03/11 04:58:58;;;;;;;9.75;4.97;;;-5.10;99.90;;;;;;5057596;28;20021;-81
2022/03/11 05:01:25;;;;;;;7.72;5.00;;;;;;;;;;5056655;28;20144;-81
2022/03/11 05:03:51;;;;;;;8.73;5.18;;;-5.10;99.90;;;;;;5057259;28;20082;-82
2022/03/11 05:06:17;;;;;;;10.52;5.88;;;-5.20;99.90;;;;;;5057105;28;20032;-80
2022/03/11 05:08:43;;;;;;;11.95;6.97;;;-5.30;99.90;;;;;;5057065;28;20133;-81
2022/03/11 05:11:09;;;;;;;7.60;5.47;;;-5.30;99.90;;;;;;5056532;28;20349;-80
2022/03/11 05:13:34;;;;;;;8.50;5.38;;;-5.40;99.90;;;;;;5056311;28;20120;-80
2022/03/11 05:16:00;;;;;;;10.85;5.63;;;-5.40;99.90;;;;;;5056626;28;20053;-81
2022/03/11 05:18:26;;;;;;;16.65;8.95;;;-5.30;99.90;;;;;;5057318;28;20021;-81
2022/03/11 05:20:52;;;;;;;11.38;6.60;;;-5.50;99.90;;;;;;5056536;28;20478;-82
2022/03/11 05:23:18;;;;;;;11.25;5.90;;;-5.50;99.90;;;;;;5056219;28;20029;-81
2022/03/11 05:25:43;;;;;;;11.23;6.20;;;-5.40;99.90;;;;;;5056186;28;20082;-81
2022/03/11 05:28:09;;;;;;;12.18;6.63;;;-5.50;99.90;;;;;;5056515;28;20033;-80
2022/03/11 05:30:36;;;;;;;15.25;6.75;;;-5.50;99.90;;;;;;5056350;28;20033;-81
2022/03/11 05:33:03;;;;;;;13.25;7.95;;;-5.30;99.90;;;;;;5056144;28;20384;-83
2022/03/11 05:35:29;;;;;;;15.55;8.07;;;-5.40;99.90;;;;;;5055853;28;20375;-81
2022/03/11 05:37:55;;;;;;;17.42;7.82;;;-5.30;99.90;;;;;;5055903;28;20055;-81
2022/03/11 05:40:21;;;;;;;12.25;7.75;;;-5.40;99.90;;;;;;5055739;28;20028;-81
2022/03/11 05:42:47;;;;;;;16.08;9.60;;;-5.30;99.90;;;;;;5057606;28;20028;-81
2022/03/11 05:45:12;;;;;;;20.60;12.68;;;-5.30;99.90;;;;;;5055857;28;20036;-81
2022/03/11 05:47:39;;;;;;;17.98;8.68;;;-5.20;99.90;;;;;;5056325;28;20112;-84
2022/03/11 05:50:05;;;;;;;30.83;13.88;;;-5.20;99.90;;;;;;5056126;28;20025;-82
2022/03/11 05:52:34;;;;;;;15.95;9.15;;;-5.10;99.90;;;;;;5056310;28;20506;-81
2022/03/11 05:55:00;;;;;;;17.02;8.65;;;-5.20;99.90;;;;;;5055684;28;20036;-82
2022/03/11 05:57:25;;;;;;;13.27;7.03;;;-5.10;99.90;;;;;;5055960;28;20388;-82
2022/03/11 05:59:53;;;;;;;16.42;7.97;;;-5.10;99.90;;;;;;5056172;28;20131;-83
2022/03/11 06:02:18;;;;;;;5.97;4.05;;;-4.90;99.10;;;;;;5060069;28;20048;-85
2022/03/11 06:04:44;;;;;;;15.88;8.43;;;-4.20;99.90;;;;;;5057250;28;20025;-83
2022/03/11 06:07:10;;;;;;;20.13;11.68;;;-4.10;99.90;;;;;;5059514;28;20048;-84
2022/03/11 06:09:36;;;;;;;20.88;12.75;;;-4.10;99.90;;;;;;5060164;28;20024;-84
2022/03/11 06:12:02;;;;;;;15.93;9.18;;;-4.20;99.70;;;;;;5061696;28;20025;-82
2022/03/11 06:14:28;;;;;;;11.52;7.32;;;-4.30;97.80;;;;;;5060553;28;20025;-83
2022/03/11 06:16:53;;;;;;;8.45;5.50;;;-4.40;96.90;;;;;;5056101;28;20032;-82
2022/03/11 06:19:19;;;;;;;10.85;4.97;;;-4.40;96.30;;;;;;5056286;28;20025;-81
2022/03/11 06:21:45;;;;;;;14.20;6.38;;;-4.50;96.00;;;;;;5056231;28;20037;-84
2022/03/11 06:24:10;;;;;;;9.77;6.45;;;-4.50;96.10;;;;;;5063155;28;20388;-82
2022/03/11 06:26:36;;;;;;;8.48;5.57;;;-4.50;96.30;;;;;;5071881;28;20025;-83
2022/03/11 06:29:02;;;;;;;9.65;5.70;;;-4.50;96.50;;;;;;5072446;28;20108;-83
2022/03/11 06:31:27;;;;;;;10.15;5.40;;;-4.40;96.50;;;;;;5072781;28;20013;-83
2022/03/11 06:33:54;;;;;;;11.55;6.03;;;-4.30;96.50;;;;;;5072252;28;20060;-82
2022/03/11 06:36:20;;;;;;;10.43;5.90;;;-4.30;96.30;;;;;;5070285;28;20365;-81
2022/03/11 06:38:45;;;;;;;8.95;5.00;;;-4.20;96.00;;;;;;5056968;28;20407;-80
2022/03/11 06:41:12;;;;;;;11.38;6.53;;;-4.20;95.70;;;;;;5058665;28;20080;-82
2022/03/11 06:43:38;;;;;;;11.25;5.68;;;-4.10;95.60;;;;;;5059560;28;20029;-81
2022/03/11 06:46:03;;;;;;;9.80;5.55;;;-4.00;95.30;;;;;;5058765;28;20079;-81
2022/03/11 06:48:29;;;;;;;11.57;6.32;;;-4.00;94.90;;;;;;5058950;28;20116;-82
2022/03/11 06:50:55;;;;;;;11.68;6.22;;;-3.90;94.50;;;;;;5058040;28;20112;-83
2022/03/11 06:53:25;;;;;;;13.02;6.65;;;-3.80;94.40;;;;;;5058310;28;20025;-83
2022/03/11 06:55:52;;;;;;;21.73;8.90;;;-3.60;94.30;;;;;;5057308;28;20123;-83
2022/03/11 06:58:18;;;;;;;24.23;9.30;;;-3.50;94.20;;;;;;5060596;28;20495;-83
2022/03/11 07:00:44;;;;;;;17.83;7.28;;;-3.40;93.90;;;;;;5056181;28;20025;-83
2022/03/11 07:03:09;;;;;;;17.90;7.90;;;-3.20;92.80;;;;;;5056401;28;20044;-82
2022/03/11 07:05:35;;;;;;;10.48;5.53;;;-3.20;92.30;;;;;;5056139;28;20045;-84
2022/03/11 07:08:01;;;;;;;7.88;4.97;;;-3.00;91.70;;;;;;5056458;28;20060;-83
2022/03/11 07:10:26;;;;;;;8.90;4.60;;;-2.90;91.40;;;;;;5056023;28;20029;-83
2022/03/11 07:12:52;;;;;;;7.28;4.80;;;-2.70;90.90;;;;;;5056251;28;20055;-83
2022/03/11 07:15:18;;;;;;;7.43;4.78;;;-2.60;89.80;;;;;;5056646;28;20016;-84
2022/03/11 07:17:46;;;;;;;11.95;6.70;;;-2.50;89.70;;;;;;5056091;28;20071;-82
2022/03/11 07:20:12;;;;;;;7.45;5.03;;;-2.40;88.20;;;;;;5056071;28;20092;-83
2022/03/11 07:22:39;;;;;;;8.82;4.57;;;-2.30;86.10;;;;;;5056246;28;20041;-85
2022/03/11 07:25:05;;;;;;;10.45;4.82;;;-2.20;83.70;;;;;;5055434;28;20136;-82
2022/03/11 07:27:31;;;;;;;12.07;4.47;;;-2.10;83.30;;;;;;5055616;28;20111;-83
2022/03/11 07:29:57;;;;;;;7.15;4.20;;;-2.10;82.70;;;;;;5054471;28;20048;-81
2022/03/11 07:32:24;;;;;;;7.90;5.45;;;-1.90;81.40;;;;;;5056896;28;20075;-80
2022/03/11 07:34:49;;;;;;;7.75;4.35;;;-1.90;81.20;;;;;;5057707;28;20025;-84
2022/03/11 07:37:15;;;;;;;7.93;4.38;;;-1.90;81.30;;;;;;5052155;28;20052;-80
2022/03/11 07:39:41;;;;;;;8.80;4.68;;;-1.70;81.00;;;;;;5052343;28;20545;-81
2022/03/11 07:42:07;;;;;;;8.18;4.50;;;-1.70;80.20;;;;;;5052397;28;20033;-81
2022/03/11 07:44:33;;;;;;;10.00;4.60;;;-1.60;79.70;;;;;;5052183;28;20025;-80
2022/03/11 07:46:59;;;;;;;6.85;4.75;;;-1.60;79.10;;;;;;5051990;28;20032;-80
2022/03/11 07:49:27;;;;;;;10.35;5.07;;;-1.60;78.60;;;;;;5052123;28;20372;-79
2022/03/11 07:51:53;;;;;;;7.32;4.90;;;-1.50;78.80;;;;;;5051870;28;20431;-80
2022/03/11 07:54:19;;;;;;;8.13;4.55;;;-1.40;78.50;;;;;;5051595;28;20621;-80
2022/03/11 07:56:45;;;;;;;8.13;4.63;;;-1.40;78.40;;;;;;5051748;28;20031;-80
2022/03/11 07:59:10;;;;;;;9.73;5.05;;;-1.30;77.60;;;;;;5052702;28;20021;-85
2022/03/11 08:01:36;;;;;;;6.25;3.95;;;-1.30;76.50;;;;;;5052908;28;20098;-81
2022/03/11 08:04:04;;;;;;;5.63;4.07;;;-1.30;76.60;;;;;;5052588;28;20090;-82
2022/03/11 08:06:30;;;;;;;8.48;4.70;;;-1.20;77.10;;;;;;5053027;28;20029;-80
2022/03/11 08:08:56;;;;;;;8.07;4.43;;;-1.20;76.20;;;;;;5052679;28;20025;-85
2022/03/11 08:11:22;;;;;;;6.25;4.38;;;-1.20;76.10;;;;;;5053532;28;20025;-83
2022/03/11 08:13:48;;;;;;;9.95;4.05;;;-1.10;76.60;;;;;;5053031;28;20031;-82
2022/03/11 08:16:14;;;;;;;7.75;4.45;;;-1.00;75.10;;;;;;5053984;28;20048;-82
2022/03/11 08:18:41;;;;;;;9.30;4.63;;;-1.00;75.30;;;;;;5053068;28;20021;-85
2022/03/11 08:21:08;;;;;;;5.15;4.38;;;-1.00;76.00;;;;;;5052972;28;20029;-82
2022/03/11 08:23:33;;;;;;;9.80;4.15;;;-0.80;76.20;;;;;;5054195;28;20527;-82
2022/03/11 08:25:59;;;;;;;8.13;4.80;;;-0.80;76.00;;;;;;5053799;28;20056;-82
2022/03/11 08:28:25;;;;;;;8.88;4.70;;;-0.60;76.10;;;;;;5053577;28;20044;-80
2022/03/11 08:30:51;;;;;;;8.45;4.20;;;-0.60;74.80;;;;;;5052895;28;20029;-82
2022/03/11 08:33:22;;;;;;;11.45;5.07;;;-0.50;73.90;;;;;;5052928;28;20532;-82
2022/03/11 08:35:49;;;;;;;7.05;4.75;;;-0.50;73.50;;;;;;5052847;28;20060;-80
2022/03/11 08:38:15;;;;;;;8.02;4.60;;;-0.60;73.10;;;;;;5053672;28;20045;-82
2022/03/11 08:40:41;;;;;;;8.43;4.55;;;-0.70;72.50;;;;;;5053228;28;20540;-82
2022/03/11 08:43:06;;;;;;;8.55;4.18;;;-0.70;73.30;;;;;;5052749;28;20021;-79
2022/03/11 08:45:32;;;;;;;7.97;4.35;;;-0.70;73.50;;;;;;5052144;28;20040;-81
2022/03/11 08:47:58;;;;;;;6.93;4.53;;;-0.50;72.50;;;;;;5053056;28;20490;-82
2022/03/11 08:50:24;;;;;;;6.80;4.20;;;-0.50;72.80;;;;;;5052162;28;20023;-83
2022/03/11 08:52:50;;;;;;;9.88;4.85;;;-0.20;76.10;;;;;;5052598;28;20029;-84
2022/03/11 08:55:16;;;;;;;8.18;4.10;;;0.50;82.00;;;;;;5054469;28;20082;-84
2022/03/11 08:57:49;;;;;;;7.75;4.43;;;0.60;72.40;;;;;;5052455;28;20041;-81
2022/03/11 09:00:17;;;;;;;8.80;4.45;;;0.50;71.30;;;;;;5053315;28;20021;-81
2022/03/11 09:02:43;;;;;;;7.70;4.88;;;0.40;69.30;;;;;;5052899;28;20052;-83
2022/03/11 09:05:10;;;;;;;7.80;4.95;;;0.40;70.30;;;;;;5052165;28;20025;-82
2022/03/11 09:07:36;;;;;;;5.68;3.88;;;0.30;69.90;;;;;;5056440;28;20083;-82
2022/03/11 09:10:04;;;;;;;7.03;4.20;;;0.30;69.70;;;;;;5057165;28;20024;-84
2022/03/11 09:12:30;;;;;;;10.07;4.32;;;0.30;70.80;;;;;;5056108;28;20025;-84
2022/03/11 09:14:56;;;;;;;9.27;4.50;;;0.90;89.50;;;;;;5057413;28;20182;-86
2022/03/11 09:17:21;;;;;;;7.70;4.50;;;1.10;72.00;;;;;;5057860;28;20488;-81
2022/03/11 09:19:47;;;;;;;9.68;5.13;;;1.20;69.90;;;;;;5058118;28;20051;-83
2022/03/11 09:22:14;;;;;;;8.25;4.13;;;1.10;68.00;;;;;;5057528;28;20033;-83
2022/03/11 09:24:40;;;;;;;10.80;5.13;;;1.10;75.40;;;;;;5057872;28;20021;-85
2022/03/11 09:27:07;;;;;;;7.75;4.13;;;0.80;66.80;;;;;;5057615;28;20036;-83
2022/03/11 09:29:32;;;;;;;9.77;4.30;;;0.60;66.70;;;;;;5057436;28;20425;-85
2022/03/11 09:31:58;;;;;;;10.07;4.13;;;0.60;68.00;;;;;;5057780;28;20033;-83
2022/03/11 09:34:25;;;;;;;11.70;4.72;;;0.60;68.50;;;;;;5057035;28;20082;-85
2022/03/11 09:36:54;;;;;;;8.65;4.82;;;0.80;67.30;;;;;;5057310;28;20033;-83
2022/03/11 09:39:20;;;;;;;7.90;4.35;;;0.90;67.30;;;;;;5056780;28;20040;-83
2022/03/11 09:41:47;;;;;;;8.95;5.22;;;2.00;77.10;;;;;;5057146;28;20124;-82
2022/03/11 09:44:13;;;;;;;7.00;5.13;;;2.20;65.80;;;;;;5057690;28;20029;-83
2022/03/11 09:46:40;;;;;;;6.55;4.65;;;2.20;63.70;;;;;;5057681;28;20028;-84
2022/03/11 09:49:07;;;;;;;7.07;4.00;;;2.00;63.40;;;;;;5057143;28;20017;-84
2022/03/11 09:51:35;;;;;;;8.82;4.75;;;1.90;63.70;;;;;;5058612;28;20029;-81
2022/03/11 09:54:03;;;;;;;8.68;5.32;;;1.80;64.00;;;;;;5057286;28;20025;-82
2022/03/11 09:56:29;;;;;;;7.75;5.13;;;1.70;63.60;;;;;;5057611;28;20021;-84
2022/03/11 09:58:56;;;;;;;10.48;5.88;;;1.70;63.30;;;;;;5056647;28;20055;-83
2022/03/11 10:01:22;;;;;;;5.10;3.72;;;1.60;64.00;;;;;;5057224;28;20033;-85
2022/03/11 10:03:48;;;;;;;9.65;5.07;;;1.60;63.70;;;;;;5057396;28;20021;-84
2022/03/11 10:06:13;;;;;;;8.35;4.30;;;1.70;64.00;;;;;;5058455;28;20032;-86
2022/03/11 10:08:42;;;;;;;8.40;4.45;;;1.70;64.10;;;;;;5057277;28;20029;-83
2022/03/11 10:11:25;;;;;;;6.68;4.70;;;1.80;63.50;;;;;;5057867;28;20126;-83
2022/03/11 10:14:04;;;;;;;7.38;4.30;;;1.90;63.50;;;;;;5056479;28;20025;-83
2022/03/11 10:16:30;;;;;;;7.75;4.82;;;1.90;62.20;;;;;;5056233;28;20108;-81
2022/03/11 10:19:04;;;;;;;8.18;4.72;;;1.80;62.70;;;;;;5055490;28;20032;-85
2022/03/11 10:21:45;;;;;;;7.43;3.65;;;1.80;62.00;;;;;;5056017;28;20032;-79
2022/03/11 10:24:21;;;;;;;8.35;4.40;;;1.70;61.60;;;;;;5055124;28;20358;-79
2022/03/11 10:26:51;;;;;;;10.95;5.32;;;1.70;62.20;;;;;;5056092;28;20025;-82
2022/03/11 10:29:27;;;;;;;7.90;4.45;;;1.90;63.00;;;;;;5055845;28;20031;-80
2022/03/11 10:31:58;;;;;;;8.15;4.53;;;2.00;62.80;;;;;;5056718;28;20029;-85
2022/03/11 10:34:29;;;;;;;8.38;3.75;;;1.90;62.90;;;;;;5062296;28;20029;-85
2022/03/11 10:37:01;;;;;;;9.95;4.95;;;2.10;62.90;;;;;;5054270;28;20033;-80
2022/03/11 10:39:32;;;;;;;9.32;4.63;;;2.20;62.30;;;;;;5054842;28;20025;-85
2022/03/11 10:42:12;;;;;;;12.32;5.10;;;2.20;62.50;;;;;;5055498;28;20036;-81
2022/03/11 10:45:05;;;;;;;8.18;4.57;;;2.20;62.00;;;;;;5055047;28;20028;-80
2022/03/11 10:47:39;;;;;;;9.70;5.10;;;2.20;61.70;;;;;;5053176;28;20036;-80
2022/03/11 10:50:06;;;;;;;8.98;4.70;;;2.30;62.00;;;;;;5055401;28;20024;-84
2022/03/11 10:52:46;;;;;;;9.95;5.55;;;2.40;61.70;;;;;;5054889;28;20105;-82
2022/03/11 10:55:18;;;;;;;12.95;4.82;;;2.40;61.60;;;;;;5053933;28;20025;-79
2022/03/11 10:57:43;;;;;;;7.63;4.43;;;2.50;61.70;;;;;;5053090;28;20005;-80
2022/03/11 11:00:16;;;;;;;9.70;5.43;;;2.50;61.00;;;;;;5053219;28;20391;-80
2022/03/11 11:02:43;;;;;;;8.38;4.47;;;2.60;61.40;;;;;;5053154;28;20124;-80
2022/03/11 11:05:11;;;;;;;11.43;5.57;;;2.70;60.60;;;;;;5053127;28;20098;-80
2022/03/11 11:07:37;;;;;;;7.60;4.93;;;2.70;61.20;;;;;;5053674;28;20028;-80
2022/03/11 11:10:03;;;;;;;9.57;5.28;;;2.80;61.00;;;;;;5053278;28;20021;-80
2022/03/11 11:12:29;;;;;;;6.30;4.68;;;2.90;61.00;;;;;;5053354;28;20032;-80
2022/03/11 11:14:54;;;;;;;7.13;4.63;;;3.00;60.60;;;;;;5053145;28;20025;-80
2022/03/11 11:17:20;;;;;;;10.07;5.78;;;3.00;59.90;;;;;;5053007;28;20112;-82
2022/03/11 11:19:49;;;;;;;8.23;5.22;;;3.10;60.40;;;;;;5052904;28;20055;-82
2022/03/11 11:22:15;;;;;;;7.93;5.43;;;3.10;60.20;;;;;;5053614;28;20609;-80
2022/03/11 11:24:42;;;;;;;8.48;5.00;;;3.20;60.10;;;;;;5052931;28;20037;-81
2022/03/11 11:27:09;;;;;;;10.73;7.00;;;3.20;59.60;;;;;;5052802;28;20094;-79
2022/03/11 11:29:36;;;;;;;9.25;5.30;;;3.30;59.80;;;;;;5052493;28;20465;-82
2022/03/11 11:32:06;;;;;;;8.50;5.03;;;3.20;58.70;;;;;;5052578;28;20062;-81
2022/03/11 11:34:37;;;;;;;7.85;4.75;;;3.30;59.20;;;;;;5052773;28;20190;-80
2022/03/11 11:37:07;;;;;;;9.27;5.60;;;3.20;58.20;;;;;;5052372;28;20033;-80
2022/03/11 11:39:38;;;;;;;9.48;5.60;;;3.20;59.30;;;;;;5052422;28;20384;-79
2022/03/11 11:42:09;;;;;;;8.90;5.43;;;3.30;59.30;;;;;;5052599;28;20032;-80
2022/03/11 11:44:40;;;;;;;9.43;5.63;;;3.40;59.30;;;;;;5052387;28;20024;-80
2022/03/11 11:47:06;;;;;;;13.07;6.05;;;3.50;59.40;;;;;;5053505;28;20021;-80
2022/03/11 11:49:50;;;;;;;9.05;5.47;;;3.60;59.00;;;;;;5052092;28;20040;-80
2022/03/11 11:52:33;;;;;;;7.57;5.20;;;3.60;59.30;;;;;;5052270;28;20032;-79
2022/03/11 11:55:13;;;;;;;9.70;5.50;;;3.70;59.00;;;;;;5051945;28;20056;-78
2022/03/11 11:57:38;;;;;;;9.90;5.68;;;3.80;58.70;;;;;;5052081;28;20417;-80
2022/03/11 12:00:08;;;;;;;8.93;5.28;;;3.90;58.40;;;;;;5052288;28;20102;-80
2022/03/11 12:02:35;;;;;;;13.13;5.75;;;4.10;58.70;;;;;;5053022;28;20033;-80
2022/03/11 12:05:01;;;;;;;12.63;6.07;;;4.00;58.10;;;;;;5051606;28;20055;-79
2022/03/11 12:07:47;;;;;;;7.18;5.25;;;4.00;59.10;;;;;;5051354;28;20036;-79
2022/03/11 12:10:26;;;;;;;8.48;5.18;;;4.10;58.90;;;;;;5051663;28;20025;-79
2022/03/11 12:12:58;;;;;;;8.07;5.05;;;4.10;57.80;;;;;;5051671;28;20036;-79
2022/03/11 12:15:24;;;;;;;11.13;6.47;;;4.10;58.20;;;;;;5051201;28;20079;-79
2022/03/11 12:18:02;;;;;;;9.07;5.88;;;4.10;58.40;;;;;;5051074;28;20021;-79
2022/03/11 12:20:48;;;;;;;10.85;5.90;;;4.10;58.60;;;;;;5051062;28;20537;-79
2022/03/11 12:23:14;;;;;;;10.48;5.53;;;4.20;57.70;;;;;;5050671;28;20036;-79
2022/03/11 12:25:57;;;;;;;9.48;5.50;;;4.20;58.40;;;;;;5050899;28;20403;-80
2022/03/11 12:28:35;;;;;;;8.55;5.63;;;4.30;58.00;;;;;;5051194;28;20021;-81
2022/03/11 12:31:05;;;;;;;9.23;5.82;;;4.30;58.10;;;;;;5050765;28;20031;-80
2022/03/11 12:33:33;;;;;;;9.52;5.55;;;4.40;58.10;;;;;;5050956;28;20104;-80
2022/03/11 12:36:00;;;;;;;8.95;5.95;;;4.40;57.80;;;;;;5050690;28;20029;-79
2022/03/11 12:38:29;;;;;;;9.45;5.75;;;4.30;57.30;;;;;;5050838;28;20037;-80
2022/03/11 12:41:04;;;;;;;10.07;5.60;;;4.20;56.50;;;;;;5051788;28;20033;-79
2022/03/11 12:43:30;;;;;;;13.88;6.53;;;4.30;57.20;;;;;;5055410;28;20037;-81
2022/03/11 12:45:58;;;;;;;8.95;5.85;;;4.40;58.00;;;;;;5057111;28;20029;-80